Time;durP1;ratioP1;P1;durP2;ratioP2;P2;SDS_P1;SDS_P2;PMS_P1;PMS_P2;Temp;Humidity;BMP_temperature;BMP_pressure;BME280_temperature;BME280_humidity;BME280_pressure;Samples;Min_cycle;Max_cycle;Signal;HPM_P1;HPM_P2
2022/04/26 03:37:38;;;;;;;9.07;8.17;;;;;;;8.83;56.81;101216.63;5079226;28;20704;-70
2022/04/26 03:40:04;;;;;;;10.27;8.47;;;;;;;8.73;57.18;101220.72;5079106;28;20561;-70
2022/04/26 03:42:29;;;;;;;11.30;9.13;;;;;;;8.68;57.78;101222.31;5078821;28;20222;-70
2022/04/26 03:44:55;;;;;;;12.87;9.57;;;;;;;8.76;57.70;101224.25;5078901;28;20828;-70
2022/04/26 03:47:20;;;;;;;9.50;8.60;;;;;;;8.36;58.51;101224.91;5079290;28;20223;-70
2022/04/26 03:49:46;;;;;;;9.67;8.57;;;;;;;7.84;59.39;101229.56;5078877;28;20187;-70
2022/04/26 03:52:11;;;;;;;9.97;8.67;;;;;;;7.85;59.37;101224.41;5079087;28;20214;-70
2022/04/26 03:54:36;;;;;;;9.07;8.07;;;;;;;7.97;59.00;101226.47;5079389;28;20492;-69
2022/04/26 03:57:02;;;;;;;10.63;8.60;;;;;;;7.89;59.56;101231.44;5077669;28;20169;-70
2022/04/26 03:59:27;;;;;;;21.87;8.93;;;;;;;7.69;60.29;101223.09;5078550;28;20169;-70
2022/04/26 04:01:53;;;;;;;11.00;8.83;;;;;;;7.93;59.71;101230.69;5080629;28;20192;-74
2022/04/26 04:04:18;;;;;;;10.10;8.87;;;;;;;8.40;58.50;101230.25;5079595;28;20176;-71
2022/04/26 04:06:43;;;;;;;9.90;8.80;;;;;;;8.54;58.88;101233.22;5079291;28;20175;-73
2022/04/26 04:09:09;;;;;;;10.40;8.80;;;;;;;8.13;58.59;101234.69;5078915;28;20168;-72
2022/04/26 04:11:34;;;;;;;11.07;8.47;;;;;;;8.19;58.51;101245.25;5077896;28;20442;-72
2022/04/26 04:13:59;;;;;;;9.63;8.40;;;;;;;8.67;57.39;101234.41;5077875;28;20165;-72
2022/04/26 04:16:25;;;;;;;10.57;8.37;;;;;;;8.31;58.41;101232.59;5078458;28;20217;-72
2022/04/26 04:21:34;;;;;;;10.90;8.60;;;;;;;7.88;59.24;101240.06;5079029;28;20243;-71
2022/04/26 04:23:59;;;;;;;9.33;8.33;;;;;;;8.05;59.01;101245.75;5077882;28;20415;-72
2022/04/26 04:26:25;;;;;;;9.03;8.13;;;;;;;8.00;59.20;101239.53;5077666;28;20169;-71
2022/04/26 04:28:50;;;;;;;9.37;8.17;;;;;;;8.40;58.10;101239.75;5078572;28;20201;-71
2022/04/26 04:31:15;;;;;;;9.17;7.60;;;;;;;8.06;58.76;101234.53;5081817;28;20168;-71
2022/04/26 04:33:43;;;;;;;9.90;8.90;;;;;;;8.91;57.04;101228.06;5078426;28;20175;-70
2022/04/26 04:36:08;;;;;;;13.03;8.70;;;;;;;9.42;54.98;101230.13;5078180;28;20161;-71
2022/04/26 04:38:33;;;;;;;8.40;7.60;;;;;;;10.28;52.29;101227.50;5077627;28;20419;-70
2022/04/26 04:40:59;;;;;;;11.17;8.57;;;;;;;11.19;50.07;101228.19;5077425;28;20485;-71
2022/04/26 04:43:24;;;;;;;8.27;7.47;;;;;;;11.07;49.99;101232.38;5077827;28;20558;-70
2022/04/26 04:45:49;;;;;;;8.70;7.77;;;;;;;11.05;50.10;101241.03;5079513;28;20184;-71
2022/04/26 04:48:15;;;;;;;10.40;8.00;;;;;;;9.71;53.34;101252.44;5081425;28;20173;-72
2022/04/26 04:50:40;;;;;;;9.60;7.63;;;;;;;9.06;55.79;101258.78;5081757;28;20202;-70
2022/04/26 04:53:06;;;;;;;8.40;7.50;;;;;;;9.69;55.01;101259.34;5081301;28;20506;-71
2022/04/26 04:55:31;;;;;;;8.30;7.50;;;;;;;9.52;53.98;101262.44;5081973;28;20165;-70
2022/04/26 04:57:57;;;;;;;8.97;7.97;;;;;;;9.07;55.45;101261.41;5081755;28;20172;-71
2022/04/26 05:00:22;;;;;;;8.60;7.70;;;;;;;9.00;55.81;101262.09;5081628;28;20288;-71
2022/04/26 05:02:47;;;;;;;8.80;7.90;;;;;;;9.01;55.85;101262.97;5081271;28;20204;-73
2022/04/26 05:05:13;;;;;;;9.40;8.50;;;;;;;9.43;54.64;101260.53;5082021;28;20169;-72
2022/04/26 05:07:38;;;;;;;10.77;8.60;;;;;;;10.24;53.35;101264.78;5080823;28;20227;-71
2022/04/26 05:10:05;;;;;;;9.17;5.13;;;;;;;13.23;56.53;101256.59;5066152;28;20188;-64
2022/04/26 05:12:30;;;;;;;10.80;9.57;;;;;;;11.69;50.02;101262.00;5061136;28;20180;-75
2022/04/26 05:14:55;;;;;;;15.67;8.60;;;;;;;11.38;50.37;101272.00;5060620;28;20408;-75
2022/04/26 05:17:21;;;;;;;9.53;8.53;;;;;;;10.81;51.10;101275.41;5060684;28;20252;-73
2022/04/26 05:19:46;;;;;;;12.07;8.57;;;;;;;10.84;51.60;101278.06;5061305;28;20276;-75
2022/04/26 05:22:11;;;;;;;12.27;8.60;;;;;;;11.23;50.50;101279.56;5060631;28;20273;-74
2022/04/26 05:24:53;;;;;;;9.07;8.20;;;;;;;11.27;50.57;101278.78;5060738;28;20173;-74
2022/04/26 05:27:23;;;;;;;15.23;8.20;;;;;;;11.04;50.99;101286.22;5060851;28;20207;-75
2022/04/26 05:29:48;;;;;;;8.40;7.60;;;;;;;11.57;50.20;101285.34;5060589;28;20420;-74
2022/04/26 05:32:24;;;;;;;9.60;8.60;;;;;;;11.45;49.63;101279.06;5064138;28;20850;-73
2022/04/26 05:34:55;;;;;;;9.40;8.50;;;;;;;13.36;45.55;101274.16;5060887;28;20550;-74
2022/04/26 05:37:20;;;;;;;9.50;8.03;;;;;;;15.27;40.66;101265.09;5069498;28;20419;-75
2022/04/26 05:39:46;;;;;;;10.60;7.90;;;;;;;16.25;38.65;101258.66;5080482;28;20465;-74
2022/04/26 05:42:11;;;;;;;9.30;8.40;;;;;;;17.13;36.07;101260.69;5067465;28;20177;-74
2022/04/26 05:44:38;;;;;;;8.70;7.90;;;;;;;14.80;39.48;101259.88;5080539;28;20181;-73
2022/04/26 05:47:05;;;;;;;13.17;8.67;;;;;;;15.65;38.62;101261.50;5079464;28;20445;-73
2022/04/26 05:49:31;;;;;;;8.70;7.80;;;;;;;14.47;41.60;101266.78;5080101;28;20415;-74
2022/04/26 05:51:56;;;;;;;9.53;8.03;;;;;;;13.86;42.74;101259.59;5079860;28;20377;-73
2022/04/26 05:54:22;;;;;;;9.17;8.27;;;;;;;12.66;45.94;101271.84;5080035;28;20157;-73
2022/04/26 05:56:48;;;;;;;8.97;7.70;;;;;;;11.48;48.23;101274.75;5079730;28;20185;-73
2022/04/26 05:59:13;;;;;;;12.23;9.20;;;;;;;12.21;46.88;101266.13;5080270;28;20441;-74
2022/04/26 06:01:39;;;;;;;11.30;8.23;;;;;;;12.26;46.65;101267.94;5079679;28;20517;-73
2022/04/26 06:04:05;;;;;;;17.20;8.13;;;;;;;11.40;48.21;101265.06;5079295;28;20169;-73
2022/04/26 06:06:30;;;;;;;12.83;8.67;;;;;;;11.74;47.85;101278.56;5071087;28;20169;-74
2022/04/26 06:08:56;;;;;;;9.73;8.73;;;;;;;13.51;43.83;101268.16;5065741;28;20672;-72
2022/04/26 06:11:21;;;;;;;11.80;9.33;;;;;;;16.53;38.95;101254.97;5071661;28;20169;-73
2022/04/26 06:13:46;;;;;;;13.50;8.83;;;;;;;19.14;34.07;101239.53;5079437;28;20181;-73
2022/04/26 06:16:12;;;;;;;12.97;8.43;;;;;;;18.95;33.37;101249.56;5074560;28;20237;-74
2022/04/26 06:18:37;;;;;;;9.10;8.30;;;;;;;18.30;33.37;101244.41;5071770;28;20238;-74
2022/04/26 06:21:02;;;;;;;10.00;9.00;;;;;;;16.83;36.47;101259.13;5074152;28;20201;-74
2022/04/26 06:23:30;;;;;;;13.43;8.43;;;;;;;16.32;38.20;101262.13;5073533;28;20184;-73
2022/04/26 06:25:57;;;;;;;9.37;8.47;;;;;;;14.01;41.57;101269.28;5078607;28;20180;-73
2022/04/26 06:28:23;;;;;;;9.40;8.00;;;;;;;13.90;42.75;101271.84;5066698;28;20513;-73
2022/04/26 06:30:48;;;;;;;12.67;9.80;;;;;;;14.92;41.32;101266.84;5078866;28;20437;-74
2022/04/26 06:33:13;;;;;;;11.00;8.43;;;;;;;14.85;41.46;101277.38;5071790;28;20451;-74
2022/04/26 06:35:40;;;;;;;9.20;8.30;;;;;;;14.10;41.92;101282.41;5065939;28;20182;-75
2022/04/26 06:38:05;;;;;;;9.87;8.87;;;;;;;15.22;41.04;101272.09;5077997;28;20269;-73
2022/04/26 06:40:30;;;;;;;14.10;9.40;;;;;;;15.05;40.94;101277.38;5078775;28;20450;-74
2022/04/26 06:42:58;;;;;;;11.40;9.40;;;;;;;15.37;40.51;101279.09;5076263;28;20180;-74
2022/04/26 06:45:23;;;;;;;8.87;7.97;;;;;;;15.08;41.13;101282.63;5078410;28;20371;-74
2022/04/26 06:47:49;;;;;;;9.27;8.37;;;;;;;14.74;41.88;101285.25;5074246;28;20811;-74
2022/04/26 06:50:15;;;;;;;11.70;8.43;;;;;;;13.61;43.70;101295.28;5072894;28;20172;-74
2022/04/26 06:52:40;;;;;;;11.67;8.67;;;;;;;14.43;42.47;101293.00;5077605;28;20430;-75
2022/04/26 06:55:06;;;;;;;10.87;9.87;;;;;;;15.81;40.00;101284.25;5067844;28;20181;-74
2022/04/26 06:57:31;;;;;;;9.80;8.80;;;;;;;15.89;39.34;101278.97;5058373;28;20173;-75
2022/04/26 06:59:56;;;;;;;8.87;7.97;;;;;;;16.53;38.24;101284.78;5076247;28;20255;-73
2022/04/26 07:02:22;;;;;;;12.23;8.07;;;;;;;16.82;36.74;101275.84;5078610;28;20586;-75
2022/04/26 07:04:47;;;;;;;10.50;8.10;;;;;;;16.01;38.53;101283.31;5074314;28;20252;-75
2022/04/26 07:07:12;;;;;;;8.77;7.90;;;;;;;18.14;35.04;101276.28;5066978;28;20193;-74
2022/04/26 07:09:38;;;;;;;8.03;7.30;;;;;;;14.32;41.03;101292.97;5074411;28;20460;-74
2022/04/26 07:12:04;;;;;;;9.03;8.10;;;;;;;13.81;42.96;101298.91;5071168;28;20174;-74
2022/04/26 07:14:29;;;;;;;8.50;7.60;;;;;;;14.65;41.49;101296.59;5071125;28;20424;-74
2022/04/26 07:16:55;;;;;;;8.13;7.43;;;;;;;13.11;44.57;101302.78;5066594;28;20220;-73
2022/04/26 07:19:22;;;;;;;8.80;7.90;;;;;;;13.97;43.42;101309.44;5076548;28;20181;-72
2022/04/26 07:21:48;;;;;;;11.10;8.20;;;;;;;14.25;43.12;101294.72;5074461;28;20439;-73
2022/04/26 07:24:13;;;;;;;7.77;7.07;;;;;;;16.77;38.30;101289.03;5077299;28;20409;-73
2022/04/26 07:26:38;;;;;;;8.10;7.30;;;;;;;16.53;37.39;101292.69;5077841;28;20187;-72
2022/04/26 07:29:04;;;;;;;8.77;7.97;;;;;;;15.41;39.36;101292.22;5078090;28;20534;-74
2022/04/26 07:31:30;;;;;;;9.40;7.80;;;;;;;19.84;33.29;101265.56;5077559;28;20184;-73
2022/04/26 07:36:40;;;;;;;8.77;7.87;;;;;;;22.30;29.46;101269.06;5077183;28;20432;-75
2022/04/26 07:39:06;;;;;;;10.43;8.87;;;;;;;22.99;28.27;101269.53;5066215;28;20466;-73
2022/04/26 07:41:31;;;;;;;10.67;8.10;;;;;;;22.54;28.93;101276.31;5071402;28;20200;-73
2022/04/26 07:43:57;;;;;;;9.43;8.00;;;;;;;22.94;27.98;101273.28;5072266;28;20451;-75
2022/04/26 07:46:22;;;;;;;8.80;8.00;;;;;;;22.78;27.82;101273.75;5076909;28;20192;-75
2022/04/26 07:48:47;;;;;;;8.53;7.53;;;;;;;21.14;29.96;101282.94;5077761;28;20416;-75
2022/04/26 07:51:12;;;;;;;8.93;8.03;;;;;;;22.19;29.04;101283.56;5067409;28;20222;-75
2022/04/26 07:53:38;;;;;;;8.00;7.13;;;;;;;22.19;28.52;101285.31;5072346;28;20185;-74
2022/04/26 07:56:04;;;;;;;8.50;7.80;;;;;;;23.31;27.66;101277.34;5078102;28;20219;-75
2022/04/26 07:58:30;;;;;;;9.47;8.00;;;;;;;23.02;27.80;101285.38;5075045;28;20186;-76
2022/04/26 08:00:55;;;;;;;8.27;7.57;;;;;;;18.30;33.92;101313.03;5061540;28;20468;-72
2022/04/26 08:03:20;;;;;;;7.93;7.17;;;;;;;21.37;29.81;101293.78;5075535;28;20176;-75
2022/04/26 08:05:46;;;;;;;8.03;7.03;;;;;;;23.03;26.58;101296.91;5073402;28;20244;-74
2022/04/26 08:08:11;;;;;;;8.70;7.00;;;;;;;21.73;28.78;101294.66;5069015;28;20195;-74
2022/04/26 08:10:37;;;;;;;10.67;8.27;;;;;;;23.15;26.50;101295.63;5077313;28;20617;-74
2022/04/26 08:13:03;;;;;;;9.40;7.13;;;;;;;23.69;25.84;101294.63;5068698;28;20176;-74
2022/04/26 08:15:28;;;;;;;7.20;6.43;;;;;;;24.07;24.83;101298.59;5071187;28;20184;-73
2022/04/26 08:17:53;;;;;;;7.40;6.80;;;;;;;23.38;25.14;101308.13;5070460;28;20265;-73
2022/04/26 08:20:19;;;;;;;10.20;6.80;;;;;;;24.46;24.75;101298.81;5072975;28;20672;-74
2022/04/26 08:22:44;;;;;;;7.60;6.63;;;;;;;24.31;24.62;101299.44;5074632;28;20551;-74
2022/04/26 08:27:54;;;;;;;7.00;6.47;;;;;;;24.73;24.28;101295.16;5081105;28;20183;-74
2022/04/26 08:30:19;;;;;;;6.90;6.20;;;;;;;25.24;23.52;101295.72;5081130;28;20860;-74
2022/04/26 08:32:47;;;;;;;8.37;6.00;;;;;;;21.62;27.07;101308.22;5071577;28;20189;-74
2022/04/26 08:35:15;;;;;;;6.70;6.00;;;;;;;24.08;24.25;101300.34;5078514;28;20181;-75
2022/04/26 08:37:40;;;;;;;7.63;6.93;;;;;;;18.72;31.22;101323.88;5080593;28;20496;-75
2022/04/26 08:40:07;;;;;;;9.80;7.03;;;;;;;20.19;29.54;101321.31;5077338;28;20844;-73
2022/04/26 08:42:38;;;;;;;9.90;6.20;;;;;;;22.05;26.33;101320.25;5079393;28;20264;-72
2022/04/26 08:45:05;;;;;;;6.67;6.17;;;;;;;23.47;25.54;101313.13;5076348;28;20479;-73
2022/04/26 08:52:59;;;;;;;6.90;6.20;;;;;;;23.07;24.40;101314.50;5060062;28;20426;-71
2022/04/26 08:55:25;;;;;;;8.57;6.10;;;;;;;24.84;22.98;101317.78;5076483;28;20434;-72
2022/04/26 08:57:51;;;;;;;7.40;6.57;;;;;;;25.20;22.59;101314.50;5079670;28;20242;-73
2022/04/26 09:00:17;;;;;;;9.97;7.17;;;;;;;25.67;22.36;101305.38;5081073;28;20557;-74
2022/04/26 09:02:42;;;;;;;7.10;6.47;;;;;;;25.16;22.21;101312.03;5080613;28;20517;-74
2022/04/26 09:05:13;;;;;;;13.37;6.83;;;;;;;25.04;22.97;101314.28;5080463;28;20509;-75
2022/04/26 09:07:40;;;;;;;6.27;5.77;;;;;;;21.50;26.37;101325.28;5077483;28;20450;-74
2022/04/26 09:10:14;;;;;;;6.37;5.87;;;;;;;24.47;23.00;101315.72;5080620;28;20689;-74
2022/04/26 09:13:09;;;;;;;6.83;6.17;;;;;;;20.10;29.37;101338.25;5075334;28;20466;-74
2022/04/26 09:15:52;;;;;;;7.03;6.33;;;;;;;21.25;27.34;101331.25;5074223;28;20427;-71
2022/04/26 09:18:26;;;;;;;7.73;6.97;;;;;;;23.80;24.57;101315.53;5080659;28;20679;-72
2022/04/26 09:20:54;;;;;;;9.23;6.50;;;;;;;21.32;26.91;101329.31;5080303;28;20462;-75
2022/04/26 09:23:27;;;;;;;7.03;6.53;;;;;;;20.31;29.35;101329.00;5077426;28;20434;-72
2022/04/26 09:26:14;;;;;;;7.80;7.20;;;;;;;21.30;27.21;101324.03;5080005;28;20522;-74
2022/04/26 09:28:42;;;;;;;8.00;6.90;;;;;;;20.68;27.85;101332.59;5078735;28;20427;-72
2022/04/26 09:31:19;;;;;;;6.80;6.20;;;;;;;23.13;25.53;101316.97;5061713;28;20466;-73
2022/04/26 09:33:49;;;;;;;8.10;6.43;;;;;;;24.45;23.94;101313.09;5072109;28;20427;-74
2022/04/26 09:36:15;;;;;;;7.20;6.20;;;;;;;24.45;23.53;101318.44;5072036;28;20427;-75
2022/04/26 09:38:48;;;;;;;6.57;5.97;;;;;;;20.68;27.88;101329.94;5079265;28;20489;-72
2022/04/26 09:41:13;;;;;;;7.00;6.50;;;;;;;22.73;25.22;101312.91;5067004;28;20482;-69
2022/04/26 09:43:39;;;;;;;7.33;6.60;;;;;;;24.91;22.65;101309.53;5079433;28;20881;-72
2022/04/26 09:46:06;;;;;;;6.63;6.03;;;;;;;21.45;26.52;101320.13;5075154;28;20220;-72
2022/04/26 09:48:35;;;;;;;6.97;6.40;;;;;;;24.46;23.39;101311.28;5069499;28;20843;-75
2022/04/26 09:51:04;;;;;;;6.63;6.03;;;;;;;24.25;23.87;101313.00;5079619;28;20426;-74
2022/04/26 09:53:32;;;;;;;22.33;6.97;;;;;;;23.98;24.09;101318.47;5079879;28;20399;-74
2022/04/26 09:56:01;;;;;;;49.13;10.00;;;;;;;26.57;20.88;101303.91;5066526;28;20496;-74
2022/04/26 09:58:28;;;;;;;8.30;6.33;;;;;;;27.34;20.52;101300.06;5074942;28;20461;-75
2022/04/26 10:00:57;;;;;;;10.03;6.70;;;;;;;24.82;22.37;101322.31;5077199;28;20535;-74
2022/04/26 10:03:30;;;;;;;6.87;6.17;;;;;;;21.16;26.92;101327.06;5078396;28;20459;-72
2022/04/26 10:06:01;;;;;;;19.57;7.00;;;;;;;21.40;25.89;101323.81;5074008;28;20451;-72
2022/04/26 10:08:32;;;;;;;7.83;7.00;;;;;;;22.51;25.15;101323.38;5066715;28;20447;-72
2022/04/26 10:10:59;;;;;;;8.90;6.60;;;;;;;23.30;23.74;101320.84;5059056;28;20507;-73
2022/04/26 10:13:31;;;;;;;7.70;6.27;;;;;;;24.75;22.50;101326.16;5061233;28;20427;-73
2022/04/26 10:16:02;;;;;;;7.03;6.20;;;;;;;23.73;23.18;101319.31;5075471;28;20464;-73
2022/04/26 10:18:34;;;;;;;7.43;6.70;;;;;;;22.03;25.69;101330.94;5073128;28;20462;-74
2022/04/26 10:21:01;;;;;;;7.53;6.93;;;;;;;21.92;25.53;101325.06;5072854;28;20574;-71
2022/04/26 10:23:27;;;;;;;7.30;6.60;;;;;;;22.73;24.13;101322.69;5063820;28;20512;-71
2022/04/26 10:26:11;;;;;;;7.23;6.30;;;;;;;23.30;24.04;101321.72;5059890;28;20436;-70
2022/04/26 10:29:05;;;;;;;7.10;6.50;;;;;;;23.68;23.27;101321.28;5060213;28;20444;-75
2022/04/26 10:31:56;;;;;;;6.87;6.17;;;;;;;24.78;22.72;101322.50;5064507;28;20534;-74
2022/04/26 10:34:23;;;;;;;6.77;6.17;;;;;;;24.31;23.45;101320.75;5067440;28;20435;-72
2022/04/26 10:36:48;;;;;;;7.03;6.53;;;;;;;25.22;22.36;101315.31;5062276;28;20483;-75
2022/04/26 10:39:14;;;;;;;6.80;6.30;;;;;;;22.75;24.90;101321.72;5057584;28;20452;-72
2022/04/26 10:41:45;;;;;;;7.30;6.70;;;;;;;23.69;23.30;101323.00;5058789;28;20209;-73
2022/04/26 10:44:16;;;;;;;8.50;7.80;;;;;;;23.44;24.03;101323.88;5059108;28;20176;-73
2022/04/26 10:46:50;;;;;;;16.17;6.80;;;;;;;21.68;25.60;101326.63;5058957;28;20549;-73
2022/04/26 10:49:25;;;;;;;7.87;7.03;;;;;;;21.99;25.57;101333.75;5065214;28;20423;-72
2022/04/26 10:51:55;;;;;;;7.27;6.63;;;;;;;23.71;23.81;101323.84;5078745;28;20485;-71
2022/04/26 10:54:48;;;;;;;7.20;6.60;;;;;;;22.60;25.41;101324.88;5078887;28;20515;-71
2022/04/26 10:57:15;;;;;;;8.17;7.50;;;;;;;22.41;26.02;101324.56;5079009;28;20418;-71
2022/04/26 10:59:52;;;;;;;7.27;6.60;;;;;;;21.88;25.63;101331.38;5077659;28;20407;-71
2022/04/26 11:02:18;;;;;;;7.87;7.13;;;;;;;20.51;27.22;101338.25;5073253;28;20451;-72
2022/04/26 11:04:45;;;;;;;11.07;6.27;;;;;;;20.66;26.71;101339.69;5066144;28;20414;-74
2022/04/26 11:07:11;;;;;;;7.00;6.30;;;;;;;20.50;27.43;101334.75;5078736;28;20450;-74
2022/04/26 11:09:37;;;;;;;7.07;6.53;;;;;;;19.55;28.05;101345.44;5065466;28;20427;-71
2022/04/26 11:12:03;;;;;;;8.13;7.33;;;;;;;20.12;27.82;101344.41;5058047;28;20427;-71
2022/04/26 11:14:28;;;;;;;8.93;6.60;;;;;;;20.48;27.27;101343.63;5058535;28;20691;-71
2022/04/26 11:17:00;;;;;;;12.90;7.20;;;;;;;20.90;26.48;101343.59;5061261;28;20247;-71
2022/04/26 11:19:32;;;;;;;7.00;6.40;;;;;;;21.08;26.33;101337.00;5079075;28;20508;-71
2022/04/26 11:22:05;;;;;;;7.70;7.00;;;;;;;20.59;27.01;101351.34;5078397;28;20448;-71
2022/04/26 11:30:00;;;;;;;7.50;6.80;;;;;;;20.90;26.80;101356.84;5078454;28;20413;-71
2022/04/26 11:32:43;;;;;;;8.60;6.93;;;;;;;20.77;26.89;101353.63;5060761;28;20411;-72
2022/04/26 11:35:09;;;;;;;20.97;9.27;;;;;;;21.92;25.75;101343.66;5064977;28;20177;-70
2022/04/26 11:37:45;;;;;;;7.23;6.63;;;;;;;22.07;25.08;101345.00;5058143;28;20436;-68
2022/04/26 11:40:11;;;;;;;14.00;7.63;;;;;;;22.23;24.52;101349.84;5058199;28;20478;-71
2022/04/26 11:42:37;;;;;;;7.10;6.50;;;;;;;21.00;25.53;101362.81;5057854;28;20416;-71
2022/04/26 11:45:06;;;;;;;7.40;6.70;;;;;;;22.00;24.58;101352.28;5057530;28;20180;-73
2022/04/26 11:48:01;;;;;;;24.67;21.90;;;;;;;20.89;26.56;101363.06;5058519;28;20178;-75
2022/04/26 11:50:28;;;;;;;7.80;7.07;;;;;;;20.60;26.62;101366.34;5064421;28;20442;-74
2022/04/26 11:53:09;;;;;;;7.63;6.93;;;;;;;20.44;26.33;101368.44;5077909;28;20447;-74
2022/04/26 11:55:44;;;;;;;7.90;7.20;;;;;;;19.98;26.97;101362.31;5077197;28;20419;-74
2022/04/26 11:58:33;;;;;;;7.63;6.87;;;;;;;19.72;27.76;101362.78;5078016;28;20497;-75
2022/04/26 12:01:05;;;;;;;8.33;7.00;;;;;;;21.50;26.32;101355.38;5078062;28;20508;-74
2022/04/26 12:03:37;;;;;;;7.10;6.50;;;;;;;22.27;25.70;101354.16;5068835;28;20467;-73
2022/04/26 12:06:07;;;;;;;9.00;6.30;;;;;;;22.76;24.29;101350.06;5063156;28;20516;-74
2022/04/26 12:08:43;;;;;;;6.93;6.33;;;;;;;21.28;25.64;101352.38;5077525;28;20828;-70
2022/04/26 12:11:26;;;;;;;12.30;6.90;;;;;;;21.73;24.81;101345.06;5076753;28;20411;-72
2022/04/26 12:14:12;;;;;;;7.13;6.33;;;;;;;18.73;29.33;101353.81;5077908;28;20752;-71
2022/04/26 12:16:42;;;;;;;8.97;8.07;;;;;;;21.35;26.39;101347.78;5076831;28;20459;-70
2022/04/26 12:19:08;;;;;;;12.13;7.40;;;;;;;20.74;27.01;101364.25;5077895;28;20694;-74
2022/04/26 12:21:56;;;;;;;8.83;6.77;;;;;;;20.80;27.01;101355.34;5077512;28;20454;-71
2022/04/26 12:24:26;;;;;;;7.60;6.90;;;;;;;20.62;27.66;101361.88;5077469;28;20447;-71
2022/04/26 12:27:02;;;;;;;8.17;7.37;;;;;;;20.29;27.65;101364.34;5077641;28;20465;-71
2022/04/26 12:29:39;;;;;;;8.03;7.17;;;;;;;20.28;26.94;101359.94;5077563;28;20413;-71
2022/04/26 12:32:07;;;;;;;7.70;7.00;;;;;;;20.08;27.71;101369.19;5077583;28;20869;-73
2022/04/26 12:34:32;;;;;;;8.63;7.77;;;;;;;20.24;27.22;101360.91;5077974;28;20480;-74
2022/04/26 12:37:11;;;;;;;13.13;8.60;;;;;;;20.18;27.54;101365.44;5077312;28;20462;-75
2022/04/26 12:39:58;;;;;;;8.63;7.83;;;;;;;19.41;28.49;101358.91;5077551;28;20169;-71
2022/04/26 12:42:26;;;;;;;8.13;7.10;;;;;;;19.53;28.84;101365.75;5077250;28;20493;-72
2022/04/26 12:44:54;;;;;;;9.37;7.73;;;;;;;19.99;28.34;101364.94;5077625;28;20415;-71
2022/04/26 12:52:51;;;;;;;9.07;7.07;;;;;;;20.44;27.51;101358.72;5077217;28;20610;-71
2022/04/26 12:55:49;;;;;;;7.77;7.10;;;;;;;20.92;27.71;101356.78;5077536;28;20411;-72
2022/04/26 12:58:17;;;;;;;8.83;8.00;;;;;;;20.35;27.12;101351.84;5043772;28;20427;-71
2022/04/26 13:00:43;;;;;;;8.20;7.50;;;;;;;19.53;27.93;101356.03;5077167;28;20481;-74
2022/04/26 13:03:11;;;;;;;8.10;7.03;;;;;;;19.94;28.32;101358.84;5077213;28;20593;-74
2022/04/26 13:05:36;;;;;;;7.33;6.67;;;;;;;20.66;26.91;101351.19;5076541;28;20394;-74
2022/04/26 13:08:02;;;;;;;7.50;6.90;;;;;;;21.07;27.27;101353.78;5081103;28;20721;-74
2022/04/26 13:10:27;;;;;;;7.20;6.60;;;;;;;20.72;26.69;101352.84;5080789;28;20168;-74
2022/04/26 13:12:52;;;;;;;8.20;7.40;;;;;;;21.05;26.42;101350.28;5080679;28;20171;-76
2022/04/26 13:15:23;;;;;;;8.70;7.90;;;;;;;20.73;26.59;101354.59;5079866;28;20188;-75
2022/04/26 13:17:48;;;;;;;12.13;7.03;;;;;;;20.91;27.02;101352.44;5079959;28;20221;-75
2022/04/26 13:20:13;;;;;;;7.93;6.23;;;;;;;20.99;27.69;101347.81;5079928;28;20477;-76
2022/04/26 13:22:39;;;;;;;7.60;6.80;;;;;;;21.63;26.26;101347.09;5080844;28;20165;-75
2022/04/26 13:25:05;;;;;;;7.50;6.90;;;;;;;20.32;27.11;101338.69;5080704;28;20169;-73
2022/04/26 13:27:31;;;;;;;6.53;5.93;;;;;;;21.01;27.53;101345.97;5080581;28;20426;-73
2022/04/26 13:29:57;;;;;;;7.33;6.77;;;;;;;20.91;27.17;101355.06;5080798;28;20399;-70
2022/04/26 13:32:22;;;;;;;7.33;6.70;;;;;;;20.78;26.45;101350.06;5079354;28;20430;-71
2022/04/26 13:34:48;;;;;;;7.63;6.90;;;;;;;20.68;26.82;101341.44;5079469;28;20168;-71
2022/04/26 13:37:14;;;;;;;7.37;6.77;;;;;;;20.67;27.85;101352.03;5080397;28;20185;-70
2022/04/26 13:39:40;;;;;;;7.23;6.63;;;;;;;21.23;26.65;101349.00;5080311;28;20169;-71
2022/04/26 13:42:06;;;;;;;7.70;6.60;;;;;;;20.82;26.19;101354.38;5080049;28;20807;-72
2022/04/26 13:44:32;;;;;;;6.53;5.93;;;;;;;20.33;27.66;101351.00;5080447;28;20195;-70
2022/04/26 13:46:58;;;;;;;7.47;6.70;;;;;;;18.82;29.04;101351.00;5080061;28;20415;-72
2022/04/26 13:49:24;;;;;;;7.70;7.00;;;;;;;18.59;29.75;101351.34;5079987;28;20417;-71
2022/04/26 13:51:49;;;;;;;8.10;7.33;;;;;;;19.49;29.02;101353.50;5080223;28;20161;-72
2022/04/26 13:54:14;;;;;;;7.43;6.80;;;;;;;18.85;29.39;101354.50;5079267;28;20226;-71
2022/04/26 13:56:40;;;;;;;8.63;7.63;;;;;;;19.06;30.48;101357.72;5079943;28;20169;-72
2022/04/26 13:59:05;;;;;;;7.80;7.10;;;;;;;18.28;30.38;101364.94;5080032;28;20222;-72
2022/04/26 14:01:30;;;;;;;8.53;7.73;;;;;;;19.08;29.42;101357.69;5079666;28;20200;-71
2022/04/26 14:03:56;;;;;;;8.10;7.30;;;;;;;19.24;29.58;101368.91;5079814;28;20169;-70
2022/04/26 14:06:21;;;;;;;7.80;7.10;;;;;;;19.40;29.70;101359.81;5079656;28;20168;-70
2022/04/26 14:08:50;;;;;;;8.17;7.37;;;;;;;19.05;29.95;101366.56;5080162;28;20168;-70
2022/04/26 14:11:17;;;;;;;8.10;7.23;;;;;;;18.69;30.72;101360.91;5079841;28;20161;-71
2022/04/26 14:21:54;;;;;;;7.07;6.47;;;;;;;19.33;28.42;101355.53;5079397;28;20473;-72
2022/04/26 14:24:20;;;;;;;7.10;6.47;;;;;;;20.10;27.24;101348.84;5079427;28;20427;-71
2022/04/26 14:26:45;;;;;;;7.67;6.87;;;;;;;20.32;27.94;101351.94;5079526;28;20260;-70
2022/04/26 14:29:10;;;;;;;7.57;6.93;;;;;;;20.39;27.47;101350.03;5079216;28;20193;-70
2022/04/26 14:31:36;;;;;;;7.43;6.73;;;;;;;20.22;26.79;101349.50;5079651;28;20161;-73
2022/04/26 14:34:02;;;;;;;7.10;6.50;;;;;;;19.00;28.52;101353.41;5079411;28;20168;-72
2022/04/26 14:36:27;;;;;;;12.53;7.70;;;;;;;19.32;27.34;101359.06;5079266;28;20326;-73
2022/04/26 14:38:53;;;;;;;8.50;6.00;;;;;;;19.60;27.11;101356.81;5079696;28;20499;-74
2022/04/26 14:41:18;;;;;;;7.40;6.30;;;;;;;19.72;26.56;101353.06;5078873;28;20208;-73
2022/04/26 14:43:43;;;;;;;5.90;5.40;;;;;;;18.98;27.61;101359.63;5079043;28;20527;-73
2022/04/26 14:46:08;;;;;;;6.80;6.10;;;;;;;19.04;27.27;101358.63;5079790;28;20539;-72
2022/04/26 14:48:34;;;;;;;6.40;5.80;;;;;;;18.96;27.28;101356.13;5079006;28;20177;-73
2022/04/26 14:50:59;;;;;;;7.63;6.90;;;;;;;19.07;27.16;101353.31;5078965;28;20172;-72
2022/04/26 14:53:25;;;;;;;6.33;5.73;;;;;;;19.48;27.06;101355.28;5079233;28;20410;-72
2022/04/26 14:55:50;;;;;;;7.00;6.40;;;;;;;18.71;27.32;101356.44;5078907;28;20492;-73
2022/04/26 14:58:17;;;;;;;8.43;6.50;;;;;;;19.00;27.50;101357.84;5078954;28;20245;-75
2022/04/26 15:00:43;;;;;;;7.77;6.40;;;;;;;19.38;26.96;101353.69;5077479;28;20185;-74
2022/04/26 15:03:08;;;;;;;6.87;6.37;;;;;;;19.77;26.14;101347.69;5067526;28;20416;-74
2022/04/26 15:05:33;;;;;;;7.83;5.53;;;;;;;19.79;26.16;101348.53;5066679;28;20534;-72
2022/04/26 15:10:50;;;;;;;6.40;5.80;;;;;;;19.64;26.05;101355.00;5046159;28;20186;-72
2022/04/26 15:18:57;;;;;;;6.17;5.30;;;;;;;19.13;26.35;101355.84;5050161;28;20447;-72
2022/04/26 15:21:24;;;;;;;12.33;6.43;;;;;;;19.80;25.04;101350.28;5057868;28;20621;-70
2022/04/26 15:23:49;;;;;;;5.70;5.27;;;;;;;19.52;25.42;101356.97;5069506;28;20177;-74
2022/04/26 15:26:15;;;;;;;12.57;5.63;;;;;;;20.17;25.10;101350.47;5078508;28;20672;-75
2022/04/26 15:28:41;;;;;;;7.17;5.50;;;;;;;20.07;25.07;101356.84;5078203;28;20184;-71
2022/04/26 15:31:07;;;;;;;5.93;5.43;;;;;;;19.61;25.91;101358.56;5078103;28;20430;-73
2022/04/26 15:33:32;;;;;;;8.47;6.73;;;;;;;19.85;25.13;101353.75;5078766;28;20450;-72
2022/04/26 15:35:58;;;;;;;6.50;5.90;;;;;;;19.70;25.15;101360.19;5078015;28;20280;-70
2022/04/26 15:38:27;;;;;;;6.47;5.87;;;;;;;19.59;24.54;101348.91;5077262;28;20238;-72
2022/04/26 15:40:53;;;;;;;7.60;5.80;;;;;;;19.40;25.29;101351.88;5078628;28;20193;-73
2022/04/26 15:43:18;;;;;;;7.20;6.30;;;;;;;19.53;25.96;101345.47;5078034;28;20475;-72
2022/04/26 15:45:44;;;;;;;6.93;5.93;;;;;;;18.94;26.18;101350.88;5078002;28;20181;-71